• Join FlightAware (Why Join?)
  • Login
  • US Flag 
Trick or treat! (Boo!!) 
01:00AM EDT


 

Airport Tracker/Info


-or-


 

Live Flight TrackerFlight Track Log ✈ SWA208 ✈ 01-May-2013 ✈ KSNA - KSFO

Flight Track Log - Related Links

Times and Time Zones

All times are in EDT time to prevent confusion due to time zone crossing. See the SWA208 flight status page for this flight to view local times or setup timezone preferences in your user account.

Time Position Orientation Groundspeed Altitude Reporting Facility
EDT Latitude Longitude Course Direction KTS MPH feet Rate Location/Type
11:04PM 33.6500 -117.8833 199° South 140 161 2,000  Level Southern California TRACON
11:05PM 33.6108 -117.8994 199° South 152 175 3,100 1,980 Climbing Los Angeles Center
11:06PM 33.5583 -117.9242 201° Southwest 195 224 6,200 2,880 Climbing Los Angeles Center
11:07PM 33.5089 -117.9664 215° Southwest 252 290 9,100 2,040 Climbing Los Angeles Center
11:08PM 33.4081 -118.0536 216° Southwest 311 358 10,500 2,760 Climbing Los Angeles Center
11:09PM 33.3408 -118.1342 225° Southwest 341 392 14,900 4,020 Climbing Los Angeles Center
11:10PM 33.3636 -118.2475 284° West 354 407 18,900 3,360 Climbing Los Angeles Center
11:11PM 33.4192 -118.3203 312° West 369 425 21,800 3,360 Climbing Los Angeles Center
11:12PM 33.5064 -118.4364 312° West 385 443 25,800 3,240 Climbing Los Angeles Center
11:13PM 33.5844 -118.5389 312° West 405 466 28,600 2,520 Climbing Los Angeles Center
11:14PM 33.6661 -118.6461 312° West 426 490 31,000 2,580 Climbing Los Angeles Center
11:15PM 33.7475 -118.7533 312° West 430 495 34,000 2,460 Climbing Los Angeles Center
11:16PM 33.8189 -118.8661 307° West 435 501 36,200 1,920 Climbing Los Angeles Center
11:18PM 33.8253 -119.0086 273° West 430 495 38,000 840 Climbing Los Angeles Center
11:19PM 33.8303 -119.1822 272° West 433 498 38,000  Level Los Angeles Center
11:20PM 33.8356 -119.3250 273° West 429 494 38,000 900 Level Los Angeles Center
11:21PM 33.8667 -119.4589 286° West 427 491 39,900 960 Climbing Los Angeles Center
11:22PM 33.9617 -119.5464 323° Northwest 432 497 40,000  Climbing Los Angeles Center
11:23PM 34.0597 -119.6347 323° Northwest 438 504 40,000  Level Los Angeles Center
11:24PM 34.1567 -119.7247 322° Northwest 438 504 40,000  Level Los Angeles Center
11:25PM 34.2736 -119.8317 323° Northwest 437 503 40,000  Level Los Angeles Center
11:26PM 34.3903 -119.9386 323° Northwest 440 506 40,000  Level Los Angeles Center
11:27PM 34.4875 -120.0272 323° Northwest 438 504 40,000  Level Los Angeles Center
11:28PM 34.5864 -120.1186 323° Northwest 432 497 40,000  Level Los Angeles Center
11:29PM 34.6736 -120.1981 323° Northwest 430 495 40,000  Level Los Angeles Center
11:30PM 34.7658 -120.2853 322° Northwest 428 493 40,000  Level Los Angeles Center
11:31PM 34.8758 -120.3892 322° Northwest 423 487 40,000  Level Los Angeles Center
11:32PM 34.9678 -120.4761 322° Northwest 423 487 40,000  Level Los Angeles Center
11:33PM 35.0589 -120.5628 322° Northwest 421 484 40,000  Level Los Angeles Center
11:34PM 35.1517 -120.6497 323° Northwest 423 487 40,000  Level Los Angeles Center
11:35PM 35.2425 -120.7358 322° Northwest 416 479 40,000  Level Los Angeles Center
11:36PM 35.3536 -120.8414 322° Northwest 420 483 40,000 -780 Level Los Angeles Center
11:37PM 35.4467 -120.9239 324° Northwest 420 483 38,400 -1,020 Descending Oakland Center
11:38PM 35.5442 -120.9986 328° Northwest 414 476 38,000 -240 Descending Oakland Center
11:39PM 35.6392 -121.0750 327° Northwest 410 472 38,000  Level Oakland Center
11:40PM 35.7361 -121.1514 327° Northwest 413 475 38,000  Level Oakland Center
11:41PM 35.8314 -121.2289 327° Northwest 410 472 38,000  Level Oakland Center
11:42PM 35.9278 -121.3067 327° Northwest 414 476 38,000  Level Oakland Center
11:43PM 36.0256 -121.3797 329° Northwest 419 482 38,000 -780 Level Oakland Center
11:44PM 36.1192 -121.4569 326° Northwest 411 473 36,500 -2,340 Descending Oakland Center
11:45PM 36.2200 -121.5333 329° Northwest 424 488 33,300 -3,120 Descending Oakland Center
11:46PM 36.3144 -121.6131 326° Northwest 415 478 30,200 -3,000 Descending Oakland Center
11:47PM 36.4261 -121.7056 326° Northwest 404 465 27,200 -2,760 Descending Oakland Center
11:48PM 36.5183 -121.7764 328° Northwest 393 452 24,700 -2,520 Descending Oakland Center
11:50PM 36.6167 -121.8500 329° Northwest 377 434 22,100 -2,460 Descending Northern Cal TRACON
11:51PM 36.7000 -121.9167 327° Northwest 366 421 19,700 -2,280 Descending Northern Cal TRACON
11:52PM 36.8000 -121.9833 332° Northwest 356 410 17,400 -2,340 Descending Northern Cal TRACON
11:53PM 36.8833 -122.0000 351° North 356 410 15,100 -2,520 Descending Northern Cal TRACON
11:54PM 36.9747 -122.0244 348° North 352 405 12,600 -1,860 Descending Oakland Center
11:55PM 37.0653 -122.0483 348° North 334 384 11,400 -1,080 Descending Oakland Center
11:56PM 37.1431 -122.0717 347° North 294 338 10,500 -780 Descending Oakland Center
11:57PM 37.1700 -122.1664 290° West 297 342 9,900 -300 Descending Oakland Center
11:58PM 37.1922 -122.2631 286° West 291 335 10,000  Climbing Oakland Center
11:59PM 37.2133 -122.3606 285° West 289 333 10,000 -660 Level Oakland Center
12:00AM 37.2364 -122.4536 287° West 282 325 8,700 -1,020 Descending Oakland Center
12:01AM 37.3050 -122.4714 348° North 269 310 8,000 -660 Descending Oakland Center
12:02AM 37.3700 -122.4644 North 242 278 7,400 -600 Descending Oakland Center
12:03AM 37.3975 -122.4078 59° Northeast 202 232 6,900 -660 Descending Oakland Center
12:04AM 37.3928 -122.3428 95° East 191 220 6,100 -540 Descending Oakland Center
12:05AM 37.3892 -122.2764 94° East 190 219 5,900 -300 Descending Oakland Center
12:06AM 37.4072 -122.2139 70° East 197 227 5,500 -720 Descending Oakland Center
12:07AM 37.4506 -122.1858 27° Northeast 206 237 4,500 -1,140 Descending Oakland Center
12:08AM 37.5014 -122.1950 352° North 191 220 3,200 -1,080 Descending Oakland Center
12:09AM 37.5492 -122.2119 344° North 188 216 2,400 -900 Descending Oakland Center
12:10AM 37.5736 -122.2725 297° West 192 221 1,400 -900 Descending Oakland Center
12:11AM 37.5922 -122.3192 297° West 170 196 600 -600 Descending Oakland Center
12:12AM 37.6097 -122.3553 301° West 143 165 200 -420 Descending Oakland Center